Air Navigation Services of Czech Republic  
Last data update:  28.01.2021 02:06:26 UTC česká verze
   METEO Page displayed:  28.01.2021 02:08:10 UTC  
help
METAR EDDB 280150Z 22011KT 4300 -DZ BKN005 02/01 Q1006 TEMPO BKN004=
METAR EDDC 280150Z 24008KT 9999 -DZ OVC014 02/M00 Q1008 R04/19//95=
METAR EDDE 280150Z 22011KT 9999 -SN FEW013 SCT030 02/M00 Q1008 R88/990494=
METAR EDDF 280150Z 18007KT 9000 SCT004 OVC009 02/02 Q1012 R25L/290095 R25C/290095 R18/290095 NOSIG=
METAR EDDM 280150Z 26010KT 9999 -SNRA FEW010 BKN040 01/M00 Q1013 TEMPO BKN010=
METAR EDDN 280150Z 21004KT 9999 FEW004 BKN006 01/00 Q1012 R28/29//95=
METAR EDDP 280150Z 24013KT 9999 -DZ SCT014 BKN023 02/01 Q1008 TEMPO BKN012=
METAR EDQM NIL
METAR EPBY 280200Z 19007KT CAVOK M01/M02 Q1008=
METAR EPGD 280200Z 18005KT 9999 FEW019 BKN026 M02/M03 Q1006 R11/190095=
METAR EPKK 280200Z VRB02KT 5000 BR BKN035 M03/M05 Q1011 R25/29//95=
METAR EPKT 280200Z VRB02KT 4300 BR BKN034 M06/M06 Q1010 R99/2///94=
METAR EPLL 280200Z 19003KT 160V220 9999 SCT032 M01/M06 Q1009=
METAR EPPO 280200Z 17006KT 8000 NSC M02/M04 Q1008=
METAR EPRZ 280200Z 28006KT 9999 OVC036 M02/M04 Q1010 R27/41//95=
METAR EPWA 280200Z 27003KT 9999 BKN034 M01/M02 Q1010 R33/2///95 NOSIG=
METAR EPWR 280200Z 15006KT CAVOK M04/M05 Q1010 R11/19//95=
METAR LHBP 280200Z AUTO VRB01KT 9999 NCD M08/M10 Q1013 NOSIG=
METAR LHSM 280145Z AUTO 00000KT 6000 NSC M03/M04 Q1014=
METAR LKBC 280200Z AUTO 07003KT 9000 OVC020 M03/M04 Q1011=
METAR LKCV 280200Z 13005KT 9999 BKN029 OVC045 M02/M04 Q1011 NOSIG RMK BLU BLU=
METAR LKKB 280200Z 20009KT 9999 SCT024 OVC080 00/M03 Q1010 RMK BLU=
METAR LKKU NIL
METAR LKKV 280200Z 25007KT 200V280 9999 OVC006 M01/M01 Q1009 R29/////// RMK REG QNH 1006=
METAR LKLN 280200Z AUTO 24009KT 9999 FEW016 BKN038 OVC044 00/M00 Q1011=
METAR LKMT 280200Z 19003KT CAVOK M05/M07 Q1011 NOSIG RMK REG QNH 1006=
METAR LKNA 280130Z 27002KT CAVOK M05/M06 Q1011 RMK BLU=
METAR LKPD 280200Z VRB02KT 9999 -SN OVC023 M02/M03 Q1011 RMK BLACK=
SPECI LKPJ 280201Z AUTO VRB01KT 0800 FZFG FEW034 M05/M05 Q1012=
METAR LKPR 280200Z 21012KT 9999 FEW023 M00/M02 Q1009 R24/590195 R30/490195 NOSIG RMK REG QNH 1006=
METAR LKTB 280200Z 23001KT CAVOK M03/M04 Q1012 NOSIG RMK REG QNH 1006=
METAR LKVO NIL
METAR LOWI 280150Z AUTO VRB02KT 0700 R08/P1500D R26/0900N FZBCFG FEW060 M06/M06 Q1015=
METAR LOWL 280150Z AUTO 27004KT 6000 FEW008 BKN012 M00/M01 Q1014=
METAR LOWS 280150Z AUTO 16007KT 4400 -SN FEW009 SCT012 BKN019 M01/M01 Q1014=
METAR LOWW 280150Z 24004KT 9999 FEW030 OVC050 M02/M04 Q1013 TEMPO -SN=
METAR LZIB 280200Z 27004KT 9999 FEW033 SCT049 BKN093 M01/M04 Q1013 R13/CLRD//=
METAR LZKZ 280200Z 34005KT 280V060 9999 FEW038 M06/M10 Q1011=
METAR LZMC 280200Z AUTO 15002KT 6000 R19/1500 ////// M04/M04 Q1013=
METAR LZPP 280200Z AUTO VRB01KT 9000 BKN029/// M06/M07 Q1013=
METAR LZSL 280200Z AUTO VRB01KT 9999 // OVC220/// M07/M09 Q1012=
METAR LZTT 280200Z VRB02KT 9999 FEW001 M17/M19 Q1009=
METAR LZZI 280200Z VRB02KT 9999 BKN006 M05/M07 Q1012=